Time;durP1;ratioP1;P1;durP2;ratioP2;P2;SDS_P1;SDS_P2;PMS_P1;PMS_P2;Temp;Humidity;BMP_temperature;BMP_pressure;BME280_temperature;BME280_humidity;BME280_pressure;Samples;Min_cycle;Max_cycle;Signal;HPM_P1;HPM_P2
2021/12/19 00:02:23;;;;;;;1999.90;999.90;;;;;;;3.45;58.10;102456.47;5015745;27;99695;-72
2021/12/19 00:10:31;;;;;;;1999.90;999.90;;;;;;;2.77;60.36;102443.22;5029469;27;97141;-71
2021/12/19 00:12:59;;;;;;;1999.90;999.90;;;;;;;3.01;59.77;102441.59;5039136;27;98306;-71
2021/12/19 00:15:27;;;;;;;1999.90;999.90;;;;;;;2.75;60.50;102428.13;5040480;27;97507;-71
2021/12/19 00:17:54;;;;;;;1999.90;999.90;;;;;;;2.66;60.89;102451.06;5040466;27;97027;-73
2021/12/19 00:20:22;;;;;;;1999.90;999.90;;;;;;;2.63;61.33;102440.31;5043433;27;97531;-70
2021/12/19 00:23:11;;;;;;;1999.90;999.90;;;;;;;2.57;60.89;102426.66;5041460;27;100499;-71
2021/12/19 00:25:41;;;;;;;1999.90;999.90;;;;;;;2.52;61.47;102435.91;5042383;27;97563;-71
2021/12/19 00:28:09;;;;;;;1999.90;999.90;;;;;;;2.47;61.52;102432.94;5040068;27;96911;-71
2021/12/19 00:30:36;;;;;;;1999.90;999.90;;;;;;;2.78;60.74;102426.69;5030748;27;96937;-71
2021/12/19 00:33:04;;;;;;;1999.90;999.90;;;;;;;2.95;59.69;102409.56;5022436;27;99520;-71
2021/12/19 00:35:32;;;;;;;1999.90;999.90;;;;;;;3.07;59.23;102414.09;5036040;27;99676;-71
2021/12/19 00:38:00;;;;;;;1999.90;999.90;;;;;;;2.75;60.56;102414.97;5038704;27;97122;-71
2021/12/19 00:40:27;;;;;;;1999.90;999.90;;;;;;;2.64;61.19;102426.34;5042809;27;97222;-71
2021/12/19 00:43:04;;;;;;;1999.90;999.90;;;;;;;2.57;61.21;102424.03;5043310;27;99245;-71
2021/12/19 00:45:34;;;;;;;;;;;;;;;2.39;61.17;102425.22;5041934;27;99614;-71
2021/12/19 00:48:05;;;;;;;1999.90;999.90;;;;;;;2.74;60.42;102407.91;5041098;27;97313;-71
2021/12/19 00:50:34;;;;;;;1999.90;999.90;;;;;;;2.55;61.39;102399.34;5040107;27;97723;-71
2021/12/19 00:53:02;;;;;;;1999.90;999.90;;;;;;;2.50;61.07;102390.19;5022760;27;99566;-71
2021/12/19 00:55:30;;;;;;;1999.90;999.90;;;;;;;2.39;61.89;102401.56;5041886;27;98194;-70
2021/12/19 00:57:59;;;;;;;1999.90;999.90;;;;;;;2.38;61.98;102384.91;5039733;27;96775;-71
2021/12/19 01:00:29;;;;;;;1999.90;999.90;;;;;;;2.33;61.80;102385.34;5043281;27;97337;-71
2021/12/19 01:02:59;;;;;;;1999.90;999.90;;;;;;;2.33;62.00;102388.84;5037493;27;100582;-71
2021/12/19 01:05:28;;;;;;;1999.90;999.90;;;;;;;2.26;61.99;102386.53;5041269;27;100370;-71
2021/12/19 01:07:56;;;;;;;1999.90;999.90;;;;;;;2.35;61.79;102381.09;5040616;27;97351;-71
2021/12/19 01:10:24;;;;;;;1999.90;999.90;;;;;;;2.33;61.60;102385.34;5038313;27;96868;-71
2021/12/19 01:12:52;;;;;;;1999.90;999.90;;;;;;;2.34;61.92;102372.31;5041474;27;99011;-71
2021/12/19 01:15:22;;;;;;;1999.90;999.90;;;;;;;2.32;62.13;102368.66;5043482;27;99414;-71
2021/12/19 01:17:50;;;;;;;1999.90;999.90;;;;;;;2.32;62.27;102370.34;5037689;27;96825;-71
2021/12/19 01:20:20;;;;;;;1999.90;999.90;;;;;;;2.27;62.09;102370.00;5040758;27;97982;-71
2021/12/19 01:22:49;;;;;;;1999.90;999.90;;;;;;;2.61;61.40;102368.31;5040161;27;99045;-71
2021/12/19 01:25:17;;;;;;;1999.90;999.90;;;;;;;2.82;60.54;102381.41;5022712;27;97695;-71
2021/12/19 01:27:45;;;;;;;1999.90;999.90;;;;;;;2.60;60.72;102382.25;5040256;27;97258;-71
2021/12/19 01:30:13;;;;;;;1999.90;999.90;;;;;;;2.51;61.06;102371.91;5037300;27;97205;-71
2021/12/19 01:32:43;;;;;;;1999.90;999.90;;;;;;;2.48;60.97;102370.78;5040905;27;98556;-71
2021/12/19 01:35:13;;;;;;;1999.90;999.90;;;;;;;2.45;61.40;102367.91;5029435;27;98830;-71
2021/12/19 01:37:41;;;;;;;1999.90;999.90;;;;;;;2.42;61.16;102359.81;5037578;27;97851;-70
2021/12/19 01:40:10;;;;;;;1999.90;999.90;;;;;;;2.38;60.99;102376.09;5037317;27;97850;-70
2021/12/19 01:42:40;;;;;;;1999.90;999.90;;;;;;;2.36;61.48;102359.31;5042084;27;97794;-70
2021/12/19 01:45:10;;;;;;;1999.90;999.90;;;;;;;2.35;61.14;102361.00;5036206;27;97521;-70
2021/12/19 01:47:38;;;;;;;1999.90;999.90;;;;;;;2.32;61.60;102349.34;5038983;27;97484;-70
2021/12/19 01:50:09;;;;;;;1999.90;999.90;;;;;;;2.30;61.57;102338.72;5040024;27;97862;-71
2021/12/19 01:52:37;;;;;;;1999.90;999.90;;;;;;;2.26;61.77;102346.22;5032976;27;100426;-70
2021/12/19 01:55:06;;;;;;;1999.90;999.90;;;;;;;2.21;62.01;102348.50;5037022;27;99230;-71
2021/12/19 01:57:35;;;;;;;1999.90;999.90;;;;;;;2.19;61.46;102336.97;5040581;27;97026;-70
2021/12/19 02:00:05;;;;;;;1999.90;999.90;;;;;;;2.13;61.66;102349.59;5037362;27;97691;-70
2021/12/19 02:02:33;;;;;;;1999.90;999.90;;;;;;;2.10;61.29;102308.28;5039819;27;96929;-70
2021/12/19 02:05:01;;;;;;;1999.90;999.90;;;;;;;2.10;61.50;102323.09;5040486;27;99197;-71
2021/12/19 02:07:30;;;;;;;1999.90;999.90;;;;;;;2.07;61.95;102307.97;5036222;27;96833;-71
2021/12/19 02:09:58;;;;;;;1999.90;999.90;;;;;;;2.06;61.92;102308.78;5019845;27;96804;-71
2021/12/19 02:12:26;;;;;;;1999.90;999.90;;;;;;;2.38;60.58;102299.94;5020287;27;98988;-71
2021/12/19 02:14:54;;;;;;;1999.90;999.90;;;;;;;2.53;60.00;102322.16;5018243;27;98885;-71
2021/12/19 02:17:22;;;;;;;1999.90;999.90;;;;;;;2.29;61.16;102294.88;5021237;27;97240;-71
2021/12/19 02:19:50;;;;;;;1999.90;999.90;;;;;;;2.57;60.15;102290.03;5036880;27;100397;-70
2021/12/19 02:22:19;;;;;;;1999.90;999.90;;;;;;;2.76;59.30;102291.59;5038852;27;100558;-71
2021/12/19 02:24:47;;;;;;;1999.90;999.90;;;;;;;2.88;59.19;102281.06;5038483;27;97644;-71
2021/12/19 02:27:15;;;;;;;1999.90;999.90;;;;;;;3.00;58.74;102277.63;5037054;27;96777;-73
2021/12/19 02:29:43;;;;;;;1999.90;999.90;;;;;;;3.12;58.71;102280.28;5037468;27;97555;-73
2021/12/19 02:32:12;;;;;;;1999.90;999.90;;;;;;;3.19;58.48;102272.03;5036399;27;98343;-73
2021/12/19 02:34:43;;;;;;;1999.90;999.90;;;;;;;2.81;59.72;102297.16;5038022;27;99421;-73
2021/12/19 02:37:23;;;;;;;1999.90;999.90;;;;;;;3.02;58.60;102285.66;5035211;27;96904;-73
2021/12/19 02:40:22;;;;;;;1999.90;999.90;;;;;;;3.11;58.61;102292.50;5034885;27;97698;-73
2021/12/19 02:48:23;;;;;;;1999.90;999.90;;;;;;;2.39;60.93;102270.22;5036843;27;97546;-72
2021/12/19 02:50:53;;;;;;;1999.90;999.90;;;;;;;2.27;60.92;102274.53;5040174;27;96704;-73
2021/12/19 02:53:30;;;;;;;1999.90;999.90;;;;;;;2.12;60.16;102269.00;5041011;27;99698;-73
2021/12/19 02:55:59;;;;;;;1999.90;999.90;;;;;;;2.12;60.88;102253.25;5039622;27;99259;-73
2021/12/19 02:58:27;;;;;;;1999.90;999.90;;;;;;;2.06;61.15;102261.53;5037690;27;99290;-72
2021/12/19 03:00:55;;;;;;;1999.90;999.90;;;;;;;2.02;61.58;102253.25;5036554;27;98437;-73
2021/12/19 03:03:23;;;;;;;1999.90;999.90;;;;;;;1.94;61.33;102242.19;5029677;27;100073;-74
2021/12/19 03:05:51;;;;;;;1999.90;999.90;;;;;;;1.95;62.02;102225.63;5040152;27;99848;-72
2021/12/19 03:08:19;;;;;;;1999.90;999.90;;;;;;;2.24;60.55;102224.41;5039525;27;98078;-73
2021/12/19 03:17:57;;;;;;;1999.90;999.90;;;;;;;2.35;59.97;102205.09;5039891;27;100828;-73
2021/12/19 03:19:22;;;;;;;1999.90;999.90;;;;;;;1.99;61.00;102193.59;5041347;27;97746;-73
2021/12/19 03:21:50;;;;;;;1999.90;999.90;;;;;;;1.96;60.68;102214.31;5044306;27;97280;-73
2021/12/19 03:24:18;;;;;;;1999.90;999.90;;;;;;;1.91;61.07;102217.38;5025093;27;100913;-73
2021/12/19 03:26:45;;;;;;;1999.90;999.90;;;;;;;1.85;61.42;102238.81;5045120;27;98771;-73
2021/12/19 03:29:14;;;;;;;1999.90;999.90;;;;;;;1.82;61.50;102232.41;5022002;27;96941;-73
2021/12/19 03:31:43;;;;;;;1999.90;999.90;;;;;;;2.13;60.42;102237.59;5041143;27;97299;-73
2021/12/19 03:34:10;;;;;;;1999.90;999.90;;;;;;;2.31;59.83;102238.09;5040494;27;98847;-73
2021/12/19 03:36:38;;;;;;;1999.90;999.90;;;;;;;2.04;60.42;102221.09;5043328;27;97542;-73
2021/12/19 03:39:14;;;;;;;1999.90;999.90;;;;;;;2.01;60.85;102236.63;5040233;27;99034;-74
2021/12/19 03:41:42;;;;;;;1999.90;999.90;;;;;;;1.89;61.24;102233.00;5042576;27;96961;-73
2021/12/19 03:44:10;;;;;;;1999.90;999.90;;;;;;;1.86;61.56;102238.03;5039805;27;98462;-73
2021/12/19 03:46:39;;;;;;;1999.90;999.90;;;;;;;2.15;60.30;102220.25;5040850;27;98083;-73
2021/12/19 03:49:07;;;;;;;1999.90;999.90;;;;;;;2.36;60.05;102227.97;5039741;27;98798;-73
2021/12/19 03:51:34;;;;;;;1999.90;999.90;;;;;;;2.47;59.51;102206.06;5040028;27;97230;-73
2021/12/19 03:54:02;;;;;;;1999.90;999.90;;;;;;;2.57;59.11;102211.19;5039622;27;97593;-73
2021/12/19 03:56:30;;;;;;;1999.90;999.90;;;;;;;2.66;58.78;102204.94;5043270;27;97673;-73
2021/12/19 03:58:58;;;;;;;1999.90;999.90;;;;;;;2.71;58.86;102202.66;5040293;27;97912;-73
2021/12/19 04:01:26;;;;;;;1999.90;999.90;;;;;;;2.80;58.94;102203.34;5040851;27;97186;-73
2021/12/19 04:03:56;;;;;;;1999.90;999.90;;;;;;;2.85;58.39;102207.22;5037635;27;97632;-73
2021/12/19 04:06:25;;;;;;;1999.90;999.90;;;;;;;2.91;58.23;102194.56;5041342;27;97687;-73
2021/12/19 04:08:53;;;;;;;1999.90;999.90;;;;;;;2.47;59.71;102219.19;5041740;27;97228;-73
2021/12/19 04:11:24;;;;;;;1999.90;999.90;;;;;;;2.69;58.92;102214.78;5040360;27;96846;-72
2021/12/19 04:13:52;;;;;;;1999.90;999.90;;;;;;;2.80;58.41;102212.13;5037613;27;98029;-73
2021/12/19 04:16:20;;;;;;;1999.90;999.90;;;;;;;2.84;58.83;102202.75;5043125;27;100203;-73
2021/12/19 04:18:47;;;;;;;1999.90;999.90;;;;;;;2.86;58.30;102194.19;5038686;27;96787;-73
2021/12/19 04:21:17;;;;;;;1999.90;999.90;;;;;;;2.90;58.05;102184.81;5041074;27;97912;-73
2021/12/19 04:23:44;;;;;;;1999.90;999.90;;;;;;;2.92;58.08;102172.72;5041094;27;97615;-73
2021/12/19 04:26:12;;;;;;;1999.90;999.90;;;;;;;2.50;59.34;102170.44;5040217;27;99023;-73
2021/12/19 04:28:40;;;;;;;1999.90;999.90;;;;;;;2.35;60.19;102168.34;5039957;27;97240;-73
2021/12/19 04:31:07;;;;;;;1999.90;999.90;;;;;;;2.61;59.10;102159.00;5038657;27;97686;-73
2021/12/19 04:33:38;;;;;;;1999.90;999.90;;;;;;;2.75;59.29;102165.28;5039495;27;98241;-75
2021/12/19 04:36:08;;;;;;;1999.90;999.90;;;;;;;2.37;60.30;102157.16;5040294;27;98833;-74
2021/12/19 04:42:08;;;;;;;1999.90;999.90;;;;;;;2.10;60.81;102152.44;5040420;27;97864;-73
2021/12/19 04:50:52;;;;;;;1999.90;999.90;;;;;;;2.00;61.06;102142.88;5039550;27;98891;-73
2021/12/19 04:53:23;;;;;;;1999.90;999.90;;;;;;;1.90;61.91;102150.88;5031667;27;96885;-74
2021/12/19 05:01:53;;;;;;;1999.90;999.90;;;;;;;1.82;61.93;102151.97;5008809;27;97681;-71
2021/12/19 05:04:41;;;;;;;1999.90;999.90;;;;;;;2.17;61.03;102144.22;5038568;27;99639;-72
2021/12/19 05:15:33;;;;;;;1999.90;999.90;;;;;;;1.95;61.68;102151.22;5039394;27;97095;-72
2021/12/19 05:18:05;;;;;;;1999.90;999.90;;;;;;;1.88;62.18;102149.84;5037939;27;98866;-72
2021/12/19 05:20:34;;;;;;;1999.90;999.90;;;;;;;1.84;62.15;102149.47;5039982;27;98984;-72
2021/12/19 05:23:08;;;;;;;1999.90;999.90;;;;;;;1.85;62.11;102161.81;5039909;27;97318;-72
2021/12/19 05:25:36;;;;;;;1999.90;999.90;;;;;;;2.15;61.46;102157.25;5038489;27;98529;-71
2021/12/19 05:28:05;;;;;;;1999.90;999.90;;;;;;;2.36;60.21;102154.41;5036575;27;99419;-72
2021/12/19 05:30:33;;;;;;;1999.90;999.90;;;;;;;2.53;59.97;102144.38;5038941;27;99123;-72
2021/12/19 05:33:02;;;;;;;1999.90;999.90;;;;;;;2.66;59.70;102146.19;5040129;27;97139;-72
2021/12/19 05:35:51;;;;;;;1999.90;999.90;;;;;;;2.78;59.25;102141.88;5041282;27;98799;-71
2021/12/19 05:44:15;;;;;;;1999.90;999.90;;;;;;;2.97;58.87;102129.25;5020854;27;97103;-71
2021/12/19 05:46:44;;;;;;;1999.90;999.90;;;;;;;3.03;58.94;102140.22;5037086;27;97154;-71
2021/12/19 05:49:11;;;;;;;1999.90;999.90;;;;;;;3.05;58.60;102155.31;5033434;27;100464;-71
2021/12/19 05:51:40;;;;;;;1999.90;999.90;;;;;;;3.08;58.64;102157.25;5038509;27;97593;-72
2021/12/19 05:54:09;;;;;;;1999.90;999.90;;;;;;;3.12;58.04;102164.56;5037778;27;97589;-72
2021/12/19 05:56:40;;;;;;;1999.90;999.90;;;;;;;3.14;58.20;102165.59;5039539;27;97152;-71
2021/12/19 05:59:09;;;;;;;1999.90;999.90;;;;;;;2.77;59.41;102163.69;5039348;27;97673;-72
2021/12/19 06:01:38;;;;;;;1999.90;999.90;;;;;;;2.61;60.05;102168.59;5038868;27;98816;-72
2021/12/19 06:04:06;;;;;;;1999.90;999.90;;;;;;;2.43;60.78;102177.72;5032640;27;96810;-72
2021/12/19 06:06:34;;;;;;;1999.90;999.90;;;;;;;2.34;61.09;102161.25;5038129;27;97203;-72
2021/12/19 06:09:01;;;;;;;1999.90;999.90;;;;;;;2.61;60.29;102161.63;5037927;27;101682;-72
2021/12/19 06:11:29;;;;;;;1999.90;999.90;;;;;;;2.78;59.46;102157.63;5040820;27;97579;-70
2021/12/19 06:13:57;;;;;;;1999.90;999.90;;;;;;;2.90;59.04;102148.94;5036990;27;96793;-73
2021/12/19 06:16:26;;;;;;;1999.90;999.90;;;;;;;3.00;58.84;102146.16;5041474;27;100281;-72
2021/12/19 06:18:54;;;;;;;1999.90;999.90;;;;;;;2.63;59.44;102145.97;5039891;27;98412;-72
2021/12/19 06:21:22;;;;;;;1999.90;999.90;;;;;;;2.85;58.98;102141.50;5040679;27;98586;-72
2021/12/19 06:23:49;;;;;;;1999.90;999.90;;;;;;;3.00;58.63;102137.38;5039889;27;97811;-73
2021/12/19 06:26:17;;;;;;;1999.90;999.90;;;;;;;3.05;58.48;102134.28;5021856;27;97027;-72
2021/12/19 06:28:45;;;;;;;1999.90;999.90;;;;;;;2.68;59.16;102150.78;5041113;27;98853;-72
2021/12/19 06:31:12;;;;;;;1999.90;999.90;;;;;;;2.45;60.38;102121.88;5040984;27;98494;-73
2021/12/19 06:33:41;;;;;;;1999.90;999.90;;;;;;;2.37;60.42;102116.84;5042184;27;97885;-73
2021/12/19 06:36:09;;;;;;;1999.90;999.90;;;;;;;2.22;60.81;102118.31;5038708;27;97759;-73
2021/12/19 06:38:37;;;;;;;1999.90;999.90;;;;;;;2.18;60.67;102112.81;5020602;27;98463;-72
2021/12/19 06:41:05;;;;;;;1999.90;999.90;;;;;;;2.47;60.77;102107.16;5043557;27;98003;-74
2021/12/19 06:43:33;;;;;;;1999.90;999.90;;;;;;;2.27;60.87;102104.75;5044093;27;97655;-73
2021/12/19 06:46:00;;;;;;;1999.90;999.90;;;;;;;2.17;61.50;102111.00;5045258;27;97740;-71
2021/12/19 06:48:28;;;;;;;1999.90;999.90;;;;;;;2.13;61.42;102106.31;5042230;27;98302;-72
2021/12/19 06:50:58;;;;;;;1999.90;999.90;;;;;;;2.08;61.31;102104.09;5042924;27;96941;-71
2021/12/19 06:53:26;;;;;;;1999.90;999.90;;;;;;;2.07;61.04;102118.94;5041179;27;97171;-72
2021/12/19 06:55:53;;;;;;;1999.90;999.90;;;;;;;1.97;61.37;102121.66;5025749;27;96908;-72
2021/12/19 06:58:21;;;;;;;1999.90;999.90;;;;;;;1.97;61.66;102119.03;5042927;27;99562;-72
2021/12/19 07:00:49;;;;;;;1999.90;999.90;;;;;;;1.96;61.70;102125.06;5042245;27;97751;-73
2021/12/19 07:03:21;;;;;;;1999.90;999.90;;;;;;;1.93;62.27;102114.34;5037780;27;97266;-72
2021/12/19 07:05:49;;;;;;;1999.90;999.90;;;;;;;1.94;61.65;102115.28;5043020;27;97084;-72
2021/12/19 07:08:20;;;;;;;1999.90;999.90;;;;;;;1.95;62.11;102117.09;5040063;27;100916;-72
2021/12/19 07:10:48;;;;;;;1999.90;999.90;;;;;;;1.91;61.89;102097.56;5024163;27;99218;-70
2021/12/19 07:13:20;;;;;;;1999.90;999.90;;;;;;;1.87;62.07;102103.38;5037385;27;98791;-71
2021/12/19 07:15:48;;;;;;;1999.90;999.90;;;;;;;1.91;62.28;102104.50;5041775;27;96957;-71
2021/12/19 07:18:16;;;;;;;1999.90;999.90;;;;;;;1.87;62.16;102103.38;5040694;27;98824;-72
2021/12/19 07:20:45;;;;;;;1999.90;999.90;;;;;;;1.87;62.00;102097.22;5039844;27;101044;-72
2021/12/19 07:23:13;;;;;;;1999.90;999.90;;;;;;;1.83;62.10;102090.84;5034431;27;96822;-73
2021/12/19 07:25:42;;;;;;;1999.90;999.90;;;;;;;1.83;62.05;102090.84;5039909;27;96849;-73
2021/12/19 07:28:11;;;;;;;1999.90;999.90;;;;;;;1.85;61.89;102097.09;5021257;27;100497;-72
2021/12/19 07:30:42;;;;;;;1999.90;999.90;;;;;;;1.84;61.86;102099.59;5041286;27;98894;-72
2021/12/19 07:33:12;;;;;;;1999.90;999.90;;;;;;;1.85;61.89;102078.72;5042356;27;97665;-72
2021/12/19 07:35:44;;;;;;;1999.90;999.90;;;;;;;1.84;62.25;102070.72;5042300;27;97034;-72
2021/12/19 07:38:18;;;;;;;1999.90;999.90;;;;;;;1.83;61.87;102072.47;5039588;27;97715;-72
2021/12/19 07:40:50;;;;;;;1999.90;999.90;;;;;;;1.81;63.08;102057.38;5039706;27;98458;-73
2021/12/19 07:43:18;;;;;;;1999.90;999.90;;;;;;;1.85;62.57;102075.19;5038254;27;97262;-72
2021/12/19 07:45:46;;;;;;;1999.90;999.90;;;;;;;1.82;63.08;102064.44;5039709;27;97813;-72
2021/12/19 07:48:14;;;;;;;1999.90;999.90;;;;;;;1.79;62.63;102073.03;5027276;27;99688;-72
2021/12/19 07:50:41;;;;;;;1999.90;999.90;;;;;;;1.80;62.37;102064.34;5021235;27;98791;-74
2021/12/19 07:53:09;;;;;;;1999.90;999.90;;;;;;;1.80;62.24;102074.81;5020439;27;97155;-72
2021/12/19 07:55:37;;;;;;;1999.90;999.90;;;;;;;1.80;61.86;102058.16;5022090;27;97842;-72
2021/12/19 07:58:06;;;;;;;1999.90;999.90;;;;;;;1.78;63.26;102050.19;5021151;27;99367;-73
2021/12/19 08:00:34;;;;;;;1999.90;999.90;;;;;;;1.82;62.24;102047.00;5020627;27;101015;-72
2021/12/19 08:03:02;;;;;;;1999.90;999.90;;;;;;;1.85;61.89;102056.81;5022782;27;97765;-72
2021/12/19 08:05:30;;;;;;;1999.90;999.90;;;;;;;1.80;62.22;102061.72;5023208;27;97742;-72
2021/12/19 08:08:02;;;;;;;1999.90;999.90;;;;;;;1.84;62.04;102045.41;5019617;27;99363;-73
2021/12/19 08:13:17;;;;;;;1999.90;999.90;;;;;;;1.83;61.85;102054.09;5025602;27;97721;-71
2021/12/19 08:15:45;;;;;;;1999.90;999.90;;;;;;;1.89;61.99;102044.03;5040087;27;99914;-73
2021/12/19 08:18:12;;;;;;;1999.90;999.90;;;;;;;1.85;62.69;102031.47;5037352;27;97679;-72
2021/12/19 08:20:40;;;;;;;1999.90;999.90;;;;;;;1.87;62.34;102040.38;5037948;27;99326;-71
2021/12/19 08:23:08;;;;;;;1999.90;999.90;;;;;;;1.88;61.90;102033.44;5014780;27;98888;-72
2021/12/19 08:25:35;;;;;;;1999.90;999.90;;;;;;;1.90;62.24;102040.63;5035852;27;97215;-72
2021/12/19 08:28:03;;;;;;;1999.90;999.90;;;;;;;1.93;61.91;102039.94;5030366;27;97922;-72
2021/12/19 08:30:32;;;;;;;1999.90;999.90;;;;;;;1.89;62.36;102044.03;5035901;27;98488;-72
2021/12/19 08:33:00;;;;;;;1999.90;999.90;;;;;;;1.92;62.38;102030.25;5039888;27;96960;-72
2021/12/19 08:35:28;;;;;;;1999.90;999.90;;;;;;;1.93;62.01;102027.72;5040298;27;97452;-71
2021/12/19 08:37:56;;;;;;;1999.90;999.90;;;;;;;2.00;62.05;102026.47;5041301;27;99006;-72
2021/12/19 08:40:24;;;;;;;1999.90;999.90;;;;;;;1.99;62.53;102020.31;5038811;27;97487;-72
2021/12/19 08:42:52;;;;;;;1999.90;999.90;;;;;;;1.99;62.21;102017.69;5036163;27;98167;-72
2021/12/19 08:45:20;;;;;;;1999.90;999.90;;;;;;;1.96;62.14;102032.31;5041405;27;96946;-72
2021/12/19 08:47:49;;;;;;;1999.90;999.90;;;;;;;1.96;62.33;102019.19;5037839;27;99268;-72
2021/12/19 08:50:18;;;;;;;1999.90;999.90;;;;;;;1.96;62.84;102016.56;5034815;27;100575;-72
2021/12/19 08:52:46;;;;;;;1999.90;999.90;;;;;;;1.99;62.16;102020.31;5039085;27;96772;-72
2021/12/19 08:55:14;;;;;;;1999.90;999.90;;;;;;;1.99;61.54;102011.53;5039109;27;97178;-72
2021/12/19 08:57:43;;;;;;;1999.90;999.90;;;;;;;2.02;62.21;102017.00;5033720;27;99411;-72
2021/12/19 09:00:13;;;;;;;1999.90;999.90;;;;;;;2.00;61.49;102011.63;5033247;27;99782;-72
2021/12/19 09:02:44;;;;;;;1999.90;999.90;;;;;;;2.04;61.31;102003.19;5032366;27;96988;-72
2021/12/19 09:05:14;;;;;;;1999.90;999.90;;;;;;;2.04;61.74;102012.78;5015203;27;98336;-72
2021/12/19 09:07:42;;;;;;;1999.90;999.90;;;;;;;2.01;61.38;102018.72;5034359;27;97623;-72
2021/12/19 09:10:10;;;;;;;1999.90;999.90;;;;;;;2.03;61.85;102003.09;5030152;27;98793;-72
2021/12/19 09:12:38;;;;;;;1999.90;999.90;;;;;;;1.99;61.37;102001.03;5032130;27;96933;-71
2021/12/19 09:15:08;;;;;;;1999.90;999.90;;;;;;;2.03;61.50;102009.25;5038226;27;97368;-72
2021/12/19 09:17:36;;;;;;;1999.90;999.90;;;;;;;2.03;61.48;101992.59;5013360;27;100663;-71
2021/12/19 09:20:05;;;;;;;1999.90;999.90;;;;;;;2.04;61.77;102002.28;5038420;27;99237;-73
2021/12/19 09:22:35;;;;;;;1999.90;999.90;;;;;;;2.01;61.09;101999.44;5034168;27;97378;-72
2021/12/19 09:25:17;;;;;;;1999.90;999.90;;;;;;;2.00;61.29;101993.25;5035245;27;98963;-72
2021/12/19 09:27:44;;;;;;;1999.90;999.90;;;;;;;2.07;61.39;102002.53;5032651;27;97963;-73
2021/12/19 09:30:13;;;;;;;1999.90;999.90;;;;;;;2.04;61.17;101991.78;5033951;27;99237;-72
2021/12/19 09:32:40;;;;;;;1999.90;999.90;;;;;;;2.01;61.83;101971.47;5038393;27;97556;-72
2021/12/19 09:35:08;;;;;;;1999.90;999.90;;;;;;;1.97;61.56;101968.50;5039359;27;97445;-72
2021/12/19 09:37:37;;;;;;;1999.90;999.90;;;;;;;1.99;61.11;101980.03;5039754;27;96762;-72
2021/12/19 09:40:09;;;;;;;1999.90;999.90;;;;;;;1.98;61.67;101991.34;5039840;27;98758;-69
2021/12/19 09:42:37;;;;;;;1999.90;999.90;;;;;;;1.97;61.78;101969.41;5037801;27;96873;-71
2021/12/19 09:45:06;;;;;;;1999.90;999.90;;;;;;;1.99;62.06;101957.31;5026811;27;98974;-71
2021/12/19 09:47:34;;;;;;;1999.90;999.90;;;;;;;2.04;61.37;101963.81;5016879;27;100172;-72
2021/12/19 09:50:05;;;;;;;1999.90;999.90;;;;;;;2.10;61.63;101966.03;5018123;27;100436;-72
2021/12/19 09:52:33;;;;;;;1999.90;999.90;;;;;;;2.08;61.55;101970.22;5044557;27;96908;-70
2021/12/19 09:55:03;;;;;;;1999.90;999.90;;;;;;;2.04;61.46;101966.44;5037312;27;98084;-71
2021/12/19 09:57:31;;;;;;;1999.90;999.90;;;;;;;2.04;61.67;101971.69;5035982;27;98435;-71
2021/12/19 09:59:58;;;;;;;1999.90;999.90;;;;;;;2.05;61.80;101970.88;5038441;27;98695;-71
2021/12/19 10:02:26;;;;;;;1999.90;999.90;;;;;;;2.04;62.23;101961.19;5039406;27;96854;-73
2021/12/19 10:04:54;;;;;;;1999.90;999.90;;;;;;;2.06;61.94;101963.94;5033333;27;97942;-74
2021/12/19 10:07:25;;;;;;;1999.90;999.90;;;;;;;2.06;62.49;101962.22;5037771;27;97619;-74
2021/12/19 10:10:00;;;;;;;1999.90;999.90;;;;;;;2.13;62.00;101956.66;5022183;27;99702;-73
2021/12/19 10:12:48;;;;;;;1999.90;999.90;;;;;;;2.08;62.09;101944.88;5036915;27;97241;-70
2021/12/19 10:15:19;;;;;;;1999.90;999.90;;;;;;;2.13;61.46;101955.72;5039904;27;97166;-71
2021/12/19 10:17:47;;;;;;;1999.90;999.90;;;;;;;2.12;62.37;101944.34;5033752;27;98459;-72
2021/12/19 10:20:16;;;;;;;1999.90;999.90;;;;;;;2.10;61.96;101956.44;5044731;27;100348;-72
2021/12/19 10:22:45;;;;;;;1999.90;999.90;;;;;;;2.09;62.25;101932.72;5041012;27;97154;-71
2021/12/19 10:25:17;;;;;;;1999.90;999.90;;;;;;;2.10;62.23;101934.50;5044141;27;97216;-72
2021/12/19 10:27:49;;;;;;;1999.90;999.90;;;;;;;2.08;62.25;101922.94;5044158;27;98623;-72
2021/12/19 10:30:21;;;;;;;1999.90;999.90;;;;;;;2.02;62.18;101920.78;5044972;27;98209;-71
2021/12/19 10:32:54;;;;;;;1999.90;999.90;;;;;;;2.03;62.20;101917.38;5028024;27;97618;-72
2021/12/19 10:35:24;;;;;;;1999.90;999.90;;;;;;;1.96;63.05;101920.31;5046003;27;97478;-72
2021/12/19 10:37:52;;;;;;;1999.90;999.90;;;;;;;1.91;63.60;101911.22;5042476;27;98476;-71
2021/12/19 10:40:20;;;;;;;1999.90;999.90;;;;;;;1.93;63.02;101907.00;5043572;27;100588;-71
2021/12/19 10:42:54;;;;;;;1999.90;999.90;;;;;;;1.95;62.99;101907.09;5043316;27;97117;-71
2021/12/19 10:45:32;;;;;;;1999.90;999.90;;;;;;;1.93;63.75;101908.69;5029174;27;97083;-71
2021/12/19 10:48:21;;;;;;;1999.90;999.90;;;;;;;1.88;64.46;101900.50;5036618;27;98925;-71
2021/12/19 10:50:51;;;;;;;1999.90;999.90;;;;;;;1.84;64.12;101898.44;5034784;27;98704;-72
2021/12/19 10:53:20;;;;;;;1999.90;999.90;;;;;;;1.89;63.13;101891.81;5036030;27;97599;-71
2021/12/19 10:55:49;;;;;;;1999.90;999.90;;;;;;;1.84;63.28;101889.66;5043418;27;97497;-72
2021/12/19 10:58:25;;;;;;;1999.90;999.90;;;;;;;1.86;63.36;101885.44;5042965;27;97360;-72
2021/12/19 11:01:17;;;;;;;1999.90;999.90;;;;;;;1.88;62.67;101895.25;5046327;27;97303;-72
2021/12/19 11:03:48;;;;;;;1999.90;999.90;;;;;;;1.82;63.10;101888.63;5038296;27;97971;-72
2021/12/19 11:06:23;;;;;;;1999.90;999.90;;;;;;;1.87;62.80;101888.16;5038575;27;96860;-72
2021/12/19 11:08:52;;;;;;;1999.90;999.90;;;;;;;1.91;63.59;101881.41;5015478;27;98663;-72
2021/12/19 11:11:48;;;;;;;1999.90;999.90;;;;;;;1.89;63.02;101876.06;5036457;27;100650;-72
2021/12/19 11:14:20;;;;;;;1999.90;999.90;;;;;;;1.93;62.62;101867.63;5027851;27;96836;-72
2021/12/19 11:16:49;;;;;;;1999.90;999.90;;;;;;;1.93;62.75;101862.38;5046455;27;97956;-72
2021/12/19 11:19:17;;;;;;;1999.90;999.90;;;;;;;1.88;63.18;101879.50;5045279;27;98643;-72
2021/12/19 11:22:06;;;;;;;1999.90;999.90;;;;;;;1.87;63.36;101854.03;5043420;27;99915;-72
2021/12/19 11:24:34;;;;;;;1999.90;999.90;;;;;;;1.83;63.75;101845.84;5042320;27;97707;-72
2021/12/19 11:27:05;;;;;;;1999.90;999.90;;;;;;;1.83;62.81;101836.28;5043874;27;96805;-72
2021/12/19 11:29:34;;;;;;;1999.90;999.90;;;;;;;1.84;63.40;101830.22;5044513;27;97716;-72
2021/12/19 11:32:08;;;;;;;1999.90;999.90;;;;;;;1.86;63.61;101833.88;5026709;27;98677;-73
2021/12/19 11:34:53;;;;;;;1999.90;999.90;;;;;;;1.90;62.79;101828.03;5045672;27;96949;-72
2021/12/19 11:37:24;;;;;;;1999.90;999.90;;;;;;;1.92;63.07;101813.31;5036073;27;97762;-72
2021/12/19 11:39:55;;;;;;;1999.90;999.90;;;;;;;1.97;62.63;101829.38;5022974;27;99256;-72
2021/12/19 11:42:31;;;;;;;1999.90;999.90;;;;;;;1.94;63.11;101816.97;5039591;27;98571;-72
2021/12/19 11:45:25;;;;;;;1999.90;999.90;;;;;;;1.91;63.33;101814.09;5044348;27;97983;-72
2021/12/19 11:47:57;;;;;;;1999.90;999.90;;;;;;;1.85;63.46;101810.13;5042568;27;97206;-72
2021/12/19 11:50:28;;;;;;;1999.90;999.90;;;;;;;1.85;63.33;101810.13;5025922;27;100501;-70
2021/12/19 11:52:58;;;;;;;1999.90;999.90;;;;;;;1.89;63.50;101809.56;5031310;27;98202;-70
2021/12/19 11:55:31;;;;;;;1999.90;999.90;;;;;;;1.89;63.73;101802.59;5031311;27;98730;-71
2021/12/19 11:58:23;;;;;;;1999.90;999.90;;;;;;;1.83;64.01;101802.16;5032207;27;97666;-71